createdAt,value
2022-10-12T00:00:17.702Z,100.0
2022-10-12T00:01:18.296Z,100.0
2022-10-12T00:02:18.931Z,100.0
2022-10-12T00:03:19.522Z,100.0
2022-10-12T00:04:20.115Z,100.0
2022-10-12T00:05:20.711Z,100.0
2022-10-12T00:06:21.304Z,100.0
2022-10-12T00:07:21.898Z,100.0
2022-10-12T00:08:22.492Z,100.0
2022-10-12T00:09:23.085Z,100.0
2022-10-12T00:10:23.679Z,100.0
2022-10-12T00:11:24.277Z,100.0
2022-10-12T00:12:24.870Z,100.0
2022-10-12T00:13:25.465Z,100.0
2022-10-12T00:14:26.058Z,100.0
2022-10-12T00:15:26.656Z,100.0
2022-10-12T00:16:27.248Z,100.0
2022-10-12T00:17:27.844Z,100.0
2022-10-12T00:18:28.438Z,100.0
2022-10-12T00:19:29.033Z,100.0
2022-10-12T00:20:29.625Z,100.0
2022-10-12T00:21:30.220Z,100.0
2022-10-12T00:22:30.816Z,100.0
2022-10-12T00:23:31.409Z,100.0
2022-10-12T00:24:32.004Z,100.0
2022-10-12T00:25:32.601Z,100.0
2022-10-12T00:26:33.193Z,100.0
2022-10-12T00:27:33.789Z,100.0
2022-10-12T00:28:34.436Z,100.0
2022-10-12T00:29:35.017Z,100.0
2022-10-12T00:30:35.610Z,100.0
2022-10-12T00:31:36.208Z,100.0
2022-10-12T00:32:36.800Z,100.0
2022-10-12T00:33:37.418Z,100.0
2022-10-12T00:34:38.010Z,100.0
2022-10-12T00:35:38.719Z,100.0
2022-10-12T00:36:39.246Z,100.0
2022-10-12T00:37:40.180Z,100.0
2022-10-12T00:38:40.892Z,100.0
2022-10-12T00:39:41.488Z,100.0
2022-10-12T00:40:42.081Z,100.0
2022-10-12T00:41:42.698Z,100.0
2022-10-12T00:42:43.292Z,100.0
2022-10-12T00:43:43.887Z,100.0
2022-10-12T00:44:44.479Z,100.0
2022-10-12T00:45:45.091Z,100.0
2022-10-12T00:46:45.670Z,100.0
2022-10-12T00:47:46.265Z,100.0
2022-10-12T00:48:46.857Z,100.0
2022-10-12T00:49:47.451Z,100.0
2022-10-12T00:50:48.044Z,100.0
2022-10-12T00:51:48.640Z,100.0
2022-10-12T00:52:49.257Z,100.0
2022-10-12T00:53:49.850Z,100.0
2022-10-12T00:54:50.447Z,100.0
2022-10-12T00:55:51.038Z,100.0
2022-10-12T00:56:51.635Z,100.0
2022-10-12T00:57:52.248Z,100.0
2022-10-12T00:58:52.844Z,100.0
2022-10-12T00:59:53.437Z,100.0
2022-10-12T01:00:54.070Z,100.0
2022-10-12T01:01:54.626Z,100.0
2022-10-12T01:02:55.219Z,100.0
2022-10-12T01:03:55.815Z,100.0
2022-10-12T01:04:56.408Z,100.0
2022-10-12T01:05:57.003Z,100.0
2022-10-12T01:06:57.599Z,100.0
2022-10-12T01:07:58.193Z,100.0
2022-10-12T01:08:58.789Z,100.0
2022-10-12T01:09:59.379Z,100.0
2022-10-12T01:10:59.975Z,100.0
2022-10-12T01:12:00.570Z,100.0
2022-10-12T01:13:01.165Z,100.0
2022-10-12T01:14:01.759Z,100.0
2022-10-12T01:15:02.355Z,100.0
2022-10-12T01:16:02.947Z,100.0
2022-10-12T01:17:03.542Z,100.0
2022-10-12T01:18:04.138Z,100.0
2022-10-12T01:19:04.736Z,100.0
2022-10-12T01:20:05.330Z,100.0
2022-10-12T01:21:05.926Z,100.0
2022-10-12T01:22:06.520Z,100.0
2022-10-12T01:23:07.117Z,100.0
2022-10-12T01:24:07.710Z,100.0
2022-10-12T01:25:08.305Z,100.0
2022-10-12T01:26:08.898Z,100.0
2022-10-12T01:27:09.494Z,100.0
2022-10-12T01:28:10.129Z,100.0
2022-10-12T01:29:10.720Z,100.0
2022-10-12T01:30:11.293Z,100.0
2022-10-12T01:31:11.897Z,100.0
2022-10-12T01:32:12.480Z,100.0
2022-10-12T01:33:13.075Z,100.0
2022-10-12T01:34:13.669Z,100.0
2022-10-12T01:35:14.265Z,100.0
2022-10-12T01:36:14.856Z,100.0
2022-10-12T01:37:15.451Z,100.0
2022-10-12T01:38:16.048Z,100.0
2022-10-12T01:39:16.662Z,100.0
2022-10-12T01:40:17.255Z,100.0
2022-10-12T01:41:17.849Z,100.0
2022-10-12T01:42:18.444Z,100.0
2022-10-12T01:43:19.038Z,100.0
2022-10-12T01:44:19.634Z,100.0
2022-10-12T01:45:20.229Z,100.0
2022-10-12T01:46:20.842Z,100.0
2022-10-12T01:47:21.433Z,100.0
2022-10-12T01:48:22.027Z,100.0
2022-10-12T01:49:22.626Z,100.0
2022-10-12T01:50:23.216Z,100.0
2022-10-12T01:51:23.811Z,100.0
2022-10-12T01:52:24.405Z,100.0
2022-10-12T01:53:25.001Z,100.0
2022-10-12T01:54:25.590Z,100.0
2022-10-12T01:55:26.186Z,100.0
2022-10-12T01:56:26.779Z,100.0
2022-10-12T01:57:27.373Z,100.0
2022-10-12T01:58:27.966Z,100.0
2022-10-12T01:59:28.561Z,100.0
2022-10-12T02:00:29.156Z,100.0
2022-10-12T02:01:29.824Z,100.0
2022-10-12T02:02:30.396Z,100.0
2022-10-12T02:03:30.993Z,100.0
2022-10-12T02:04:31.604Z,100.0
2022-10-12T02:05:32.199Z,100.0
2022-10-12T02:06:32.813Z,100.0
2022-10-12T02:07:33.409Z,100.0
2022-10-12T02:08:33.999Z,100.0
2022-10-12T02:09:34.596Z,100.0
2022-10-12T02:10:35.187Z,100.0
2022-10-12T02:11:35.782Z,100.0
2022-10-12T02:12:36.374Z,100.0
2022-10-12T02:13:36.989Z,100.0
2022-10-12T02:14:37.585Z,100.0
2022-10-12T02:15:38.179Z,100.0
2022-10-12T02:16:38.772Z,100.0
2022-10-12T02:17:39.660Z,100.0
2022-10-12T02:18:40.446Z,100.0
2022-10-12T02:19:41.045Z,100.0
2022-10-12T02:20:41.637Z,100.0
2022-10-12T02:21:42.230Z,100.0
2022-10-12T02:22:42.824Z,100.0
2022-10-12T02:23:43.418Z,100.0
2022-10-12T02:24:44.015Z,100.0
2022-10-12T02:25:44.610Z,100.0
2022-10-12T02:26:45.206Z,100.0
2022-10-12T02:27:45.798Z,100.0
2022-10-12T02:28:46.428Z,100.0
2022-10-12T02:29:46.987Z,100.0
2022-10-12T02:30:47.579Z,100.0
2022-10-12T02:31:48.176Z,100.0
2022-10-12T02:32:48.772Z,100.0
2022-10-12T02:33:49.367Z,100.0
2022-10-12T02:34:49.963Z,100.0
2022-10-12T02:35:50.572Z,100.0
2022-10-12T02:36:51.167Z,100.0
2022-10-12T02:37:51.763Z,100.0
2022-10-12T02:38:52.359Z,100.0
2022-10-12T02:39:52.953Z,100.0
2022-10-12T02:40:53.546Z,100.0
2022-10-12T02:41:54.141Z,100.0
2022-10-12T02:43:11.428Z,100.0
2022-10-12T02:43:56.322Z,100.0
2022-10-12T02:44:56.916Z,100.0
2022-10-12T02:45:57.508Z,100.0
2022-10-12T02:46:58.104Z,100.0
2022-10-12T02:47:58.699Z,100.0
2022-10-12T02:48:59.291Z,100.0
2022-10-12T02:49:59.884Z,100.0
2022-10-12T02:51:00.476Z,100.0
2022-10-12T02:52:01.108Z,100.0
2022-10-12T02:53:01.688Z,100.0
2022-10-12T02:54:02.282Z,100.0
2022-10-12T02:55:02.876Z,100.0
2022-10-12T02:56:03.470Z,100.0
2022-10-12T02:57:04.082Z,100.0
2022-10-12T02:58:04.677Z,100.0
2022-10-12T02:59:05.271Z,100.0
2022-10-12T03:00:05.864Z,100.0
2022-10-12T03:01:06.499Z,100.0
2022-10-12T03:02:07.083Z,100.0
2022-10-12T03:03:07.678Z,100.0
2022-10-12T03:04:08.272Z,100.0
2022-10-12T03:05:08.869Z,100.0
2022-10-12T03:06:09.467Z,100.0
2022-10-12T03:07:10.061Z,100.0
2022-10-12T03:08:10.675Z,100.0
2022-10-12T03:09:11.269Z,100.0
2022-10-12T03:10:11.864Z,100.0
2022-10-12T03:11:12.480Z,100.0
2022-10-12T03:12:13.074Z,100.0
2022-10-12T03:13:13.666Z,100.0
2022-10-12T03:14:14.263Z,100.0
2022-10-12T03:15:14.858Z,100.0
2022-10-12T03:16:15.471Z,100.0
2022-10-12T03:17:16.063Z,100.0
2022-10-12T03:18:16.658Z,100.0
2022-10-12T03:19:17.251Z,100.0
2022-10-12T03:20:17.848Z,100.0
2022-10-12T03:21:18.441Z,100.0
2022-10-12T03:22:19.033Z,100.0
2022-10-12T03:23:19.627Z,100.0
2022-10-12T03:24:20.239Z,100.0
2022-10-12T03:25:20.831Z,100.0
2022-10-12T03:26:21.428Z,100.0
2022-10-12T03:27:22.018Z,100.0
2022-10-12T03:28:22.675Z,100.0
2022-10-12T03:29:23.242Z,100.0
2022-10-12T03:30:23.838Z,100.0
2022-10-12T03:31:24.430Z,100.0
2022-10-12T03:32:25.043Z,100.0
2022-10-12T03:33:25.639Z,100.0
2022-10-12T03:34:26.235Z,100.0
2022-10-12T03:35:26.831Z,100.0
2022-10-12T03:36:27.425Z,100.0
2022-10-12T03:37:28.018Z,100.0
2022-10-12T03:38:28.613Z,100.0
2022-10-12T03:39:29.208Z,100.0
2022-10-12T03:40:29.802Z,100.0
2022-10-12T03:41:30.398Z,100.0
2022-10-12T03:42:30.995Z,100.0
2022-10-12T03:43:31.590Z,100.0
2022-10-12T03:44:32.186Z,100.0
2022-10-12T03:45:32.778Z,100.0
2022-10-12T03:46:33.374Z,100.0
2022-10-12T03:47:33.968Z,100.0
2022-10-12T03:48:34.562Z,100.0
2022-10-12T03:49:35.155Z,100.0
2022-10-12T03:50:35.751Z,100.0
2022-10-12T03:51:36.342Z,100.0
2022-10-12T03:52:36.956Z,100.0
2022-10-12T03:53:40.720Z,100.0
2022-10-12T03:54:38.160Z,100.0
2022-10-12T03:55:38.756Z,100.0
2022-10-12T03:56:39.350Z,100.0
2022-10-12T03:57:40.421Z,100.0
2022-10-12T03:58:41.220Z,100.0
2022-10-12T03:59:41.822Z,100.0
2022-10-12T04:00:42.417Z,100.0
2022-10-12T04:01:43.101Z,100.0
2022-10-12T04:02:43.684Z,100.0
2022-10-12T04:03:44.271Z,100.0
2022-10-12T04:04:44.866Z,100.0
2022-10-12T04:05:45.473Z,100.0
2022-10-12T04:06:46.053Z,100.0
2022-10-12T04:07:46.646Z,100.0
2022-10-12T04:08:50.853Z,100.0
2022-10-12T04:09:48.828Z,100.0
2022-10-12T04:10:49.419Z,100.0
2022-10-12T04:11:50.014Z,100.0
2022-10-12T04:12:50.609Z,100.0
2022-10-12T04:13:51.202Z,100.0
2022-10-12T04:14:51.796Z,100.0
2022-10-12T04:15:52.388Z,100.0
2022-10-12T04:16:53.001Z,100.0
2022-10-12T04:17:53.599Z,100.0
2022-10-12T04:18:54.189Z,100.0
2022-10-12T04:19:54.781Z,100.0
2022-10-12T04:20:55.377Z,100.0
2022-10-12T04:21:55.968Z,100.0
2022-10-12T04:22:56.563Z,100.0
2022-10-12T04:23:57.158Z,100.0
2022-10-12T04:24:57.755Z,100.0
2022-10-12T04:25:58.345Z,100.0
2022-10-12T04:26:58.940Z,100.0
2022-10-12T04:27:59.534Z,100.0
2022-10-12T04:29:00.131Z,100.0
2022-10-12T04:30:00.726Z,100.0
2022-10-12T04:31:01.319Z,100.0
2022-10-12T04:32:01.931Z,100.0
2022-10-12T04:33:02.525Z,100.0
2022-10-12T04:34:03.119Z,100.0
2022-10-12T04:35:03.716Z,100.0
2022-10-12T04:36:04.314Z,100.0
2022-10-12T04:37:04.908Z,100.0
2022-10-12T04:38:05.497Z,100.0
2022-10-12T04:39:06.092Z,100.0
2022-10-12T04:40:06.685Z,100.0
2022-10-12T04:41:07.280Z,100.0
2022-10-12T04:42:07.874Z,100.0
2022-10-12T04:43:08.479Z,100.0
2022-10-12T04:44:09.081Z,100.0
2022-10-12T04:45:09.678Z,100.0
2022-10-12T04:46:10.274Z,100.0
2022-10-12T04:47:10.868Z,100.0
2022-10-12T04:48:11.459Z,100.0
2022-10-12T04:49:12.053Z,100.0
2022-10-12T04:50:12.646Z,100.0
2022-10-12T04:51:13.239Z,100.0
2022-10-12T04:52:13.833Z,100.0
2022-10-12T04:53:14.428Z,100.0
2022-10-12T04:54:15.018Z,100.0
2022-10-12T04:55:15.613Z,100.0
2022-10-12T04:56:16.206Z,100.0
2022-10-12T04:57:16.800Z,100.0
2022-10-12T04:58:17.395Z,100.0
2022-10-12T04:59:18.006Z,100.0
2022-10-12T05:00:18.598Z,100.0
2022-10-12T05:01:19.257Z,100.0
2022-10-12T05:02:19.787Z,100.0
2022-10-12T05:03:20.399Z,100.0
2022-10-12T05:04:21.019Z,100.0
2022-10-12T05:05:21.594Z,100.0
2022-10-12T05:06:22.187Z,100.0
2022-10-12T05:07:22.785Z,100.0
2022-10-12T05:08:23.374Z,100.0
2022-10-12T05:09:23.988Z,100.0
2022-10-12T05:10:24.579Z,100.0
2022-10-12T05:11:25.174Z,100.0
2022-10-12T05:12:25.771Z,100.0
2022-10-12T05:13:26.364Z,100.0
2022-10-12T05:14:26.958Z,100.0
2022-10-12T05:15:27.554Z,100.0
2022-10-12T05:16:28.147Z,100.0
2022-10-12T05:17:28.744Z,100.0
2022-10-12T05:18:29.338Z,100.0
2022-10-12T05:19:29.932Z,100.0
2022-10-12T05:20:30.573Z,100.0
2022-10-12T05:21:31.164Z,100.0
2022-10-12T05:22:31.810Z,100.0
2022-10-12T05:23:32.404Z,100.0
2022-10-12T05:24:33.000Z,100.0
2022-10-12T05:25:33.616Z,100.0
2022-10-12T05:26:34.211Z,100.0
2022-10-12T05:27:34.812Z,100.0
2022-10-12T05:28:40.641Z,100.0
2022-10-12T05:29:36.012Z,100.0
2022-10-12T05:30:36.609Z,100.0
2022-10-12T05:31:37.208Z,100.0
2022-10-12T05:32:38.076Z,100.0
2022-10-12T05:33:38.784Z,100.0
2022-10-12T05:34:39.380Z,100.0
2022-10-12T05:35:43.943Z,100.0
2022-10-12T05:36:41.566Z,100.0
2022-10-12T05:37:42.163Z,100.0
2022-10-12T05:38:42.761Z,100.0
2022-10-12T05:39:43.365Z,100.0
2022-10-12T05:40:43.976Z,100.0
2022-10-12T05:41:44.572Z,100.0
2022-10-12T05:42:45.171Z,100.0
2022-10-12T05:43:45.768Z,100.0
2022-10-12T05:44:46.367Z,100.0
2022-10-12T05:45:46.964Z,100.0
2022-10-12T05:46:47.565Z,100.0
2022-10-12T05:47:48.158Z,100.0
2022-10-12T05:48:48.760Z,100.0
2022-10-12T05:49:49.353Z,100.0
2022-10-12T05:50:49.953Z,100.0
2022-10-12T05:51:50.550Z,100.0
2022-10-12T05:52:51.152Z,100.0
2022-10-12T05:53:51.748Z,100.0
2022-10-12T05:54:52.350Z,100.0
2022-10-12T05:55:52.945Z,100.0
2022-10-12T05:56:53.548Z,100.0
2022-10-12T05:57:54.148Z,100.0
2022-10-12T05:58:54.781Z,100.0
2022-10-12T05:59:55.378Z,100.0
2022-10-12T06:00:56.000Z,100.0
2022-10-12T06:01:56.613Z,100.0
2022-10-12T06:02:57.192Z,100.0
2022-10-12T06:03:57.789Z,100.0
2022-10-12T06:04:58.388Z,100.0
2022-10-12T06:05:58.986Z,100.0
2022-10-12T06:06:59.586Z,100.0
2022-10-12T06:08:00.184Z,100.0
2022-10-12T06:09:00.785Z,100.0
2022-10-12T06:10:01.383Z,100.0
2022-10-12T06:11:01.984Z,100.0
2022-10-12T06:12:02.589Z,100.0
2022-10-12T06:13:03.205Z,100.0
2022-10-12T06:14:03.806Z,100.0
2022-10-12T06:15:04.436Z,100.0
2022-10-12T06:16:05.031Z,100.0
2022-10-12T06:17:05.634Z,100.0
2022-10-12T06:18:06.233Z,100.0
2022-10-12T06:19:06.837Z,100.0
2022-10-12T06:20:07.431Z,100.0
2022-10-12T06:21:31.968Z,100.0
2022-10-12T06:22:09.520Z,100.0
2022-10-12T06:23:10.121Z,100.0
2022-10-12T06:24:10.721Z,100.0
2022-10-12T06:25:11.321Z,100.0
2022-10-12T06:26:11.942Z,100.0
2022-10-12T06:27:12.542Z,100.0
2022-10-12T06:28:13.162Z,100.0
2022-10-12T06:29:13.740Z,100.0
2022-10-12T06:30:14.339Z,100.0
2022-10-12T06:31:14.938Z,99.3
2022-10-12T06:32:15.537Z,96.3
2022-10-12T06:33:16.134Z,92.7
2022-10-12T06:34:16.733Z,91.6
2022-10-12T06:35:17.333Z,89.4
2022-10-12T06:36:17.935Z,90.6
2022-10-12T06:37:44.348Z,89.3
2022-10-12T06:38:20.119Z,88.9
2022-10-12T06:39:20.720Z,87.9
2022-10-12T06:40:21.310Z,87.6
2022-10-12T06:41:21.909Z,87.8
2022-10-12T06:42:22.503Z,87.3
2022-10-12T06:43:23.100Z,86.7
2022-10-12T06:44:23.698Z,86.3
2022-10-12T06:45:24.295Z,84.4
2022-10-12T06:46:24.893Z,83.7
2022-10-12T06:47:25.510Z,84.0
2022-10-12T06:48:26.136Z,83.2
2022-10-12T06:49:26.746Z,81.7
2022-10-12T06:50:27.344Z,82.5
2022-10-12T06:51:27.942Z,81.4
2022-10-12T06:52:28.545Z,79.9
2022-10-12T06:53:29.137Z,81.6
2022-10-12T06:54:29.732Z,82.5
2022-10-12T06:55:30.332Z,82.8
2022-10-12T06:56:30.929Z,83.9
2022-10-12T06:57:31.547Z,82.5
2022-10-12T06:58:32.145Z,81.6
2022-10-12T06:59:32.743Z,81.5
2022-10-12T07:00:33.360Z,81.8
2022-10-12T07:01:34.030Z,80.1
2022-10-12T07:02:34.617Z,78.9
2022-10-12T07:03:35.214Z,77.3
2022-10-12T07:04:35.814Z,75.8
2022-10-12T07:05:36.414Z,76.6
2022-10-12T07:06:37.013Z,76.5
2022-10-12T07:07:37.611Z,76.3
2022-10-12T07:08:38.210Z,75.9
2022-10-12T07:09:38.809Z,74.9
2022-10-12T07:10:39.411Z,75.1
2022-10-12T07:11:40.010Z,72.5
2022-10-12T07:12:40.806Z,71.8
2022-10-12T07:13:41.220Z,73.0
2022-10-12T07:14:41.819Z,71.9
2022-10-12T07:15:42.438Z,71.0
2022-10-12T07:16:43.058Z,67.9
2022-10-12T07:17:43.660Z,70.0
2022-10-12T07:18:44.260Z,69.9
2022-10-12T07:19:44.856Z,71.9
2022-10-12T07:20:45.454Z,73.8
2022-10-12T07:21:46.054Z,70.3
2022-10-12T07:22:46.652Z,69.7
2022-10-12T07:23:47.264Z,69.9
2022-10-12T07:24:47.849Z,69.8
2022-10-12T07:25:48.448Z,70.4
2022-10-12T07:26:49.049Z,72.3
2022-10-12T07:27:49.653Z,72.4
2022-10-12T07:28:50.288Z,72.0
2022-10-12T07:29:50.872Z,71.4
2022-10-12T07:30:51.468Z,72.2
2022-10-12T07:31:52.191Z,75.6
2022-10-12T07:32:52.730Z,78.0
2022-10-12T07:33:53.330Z,77.5
2022-10-12T07:34:53.928Z,79.6
2022-10-12T07:36:12.882Z,78.0
2022-10-12T07:36:59.502Z,78.7
2022-10-12T07:37:57.713Z,80.3
2022-10-12T07:38:58.332Z,81.7
2022-10-12T07:39:58.934Z,81.3
2022-10-12T07:40:59.530Z,82.8
2022-10-12T07:42:00.132Z,84.5
2022-10-12T07:43:15.297Z,85.5
2022-10-12T07:44:02.346Z,85.3
2022-10-12T07:45:02.950Z,85.5
2022-10-12T07:46:03.550Z,85.5
2022-10-12T07:47:04.149Z,86.6
2022-10-12T07:48:04.749Z,87.6
2022-10-12T07:49:05.346Z,88.6
2022-10-12T07:50:05.946Z,88.5
2022-10-12T07:51:06.555Z,88.6
2022-10-12T07:52:07.141Z,88.7
2022-10-12T07:53:07.740Z,88.1
2022-10-12T07:54:08.359Z,88.5
2022-10-12T07:55:08.958Z,88.7
2022-10-12T07:56:09.560Z,88.7
2022-10-12T07:57:10.159Z,88.0
2022-10-12T07:58:10.758Z,88.3
2022-10-12T07:59:11.358Z,88.6
2022-10-12T08:00:11.957Z,88.5
2022-10-12T08:01:12.621Z,88.5
2022-10-12T08:02:13.264Z,88.6
2022-10-12T08:03:13.847Z,88.0
2022-10-12T08:04:14.446Z,87.0
2022-10-12T08:05:15.046Z,86.8
2022-10-12T08:06:15.668Z,86.4
2022-10-12T08:07:16.264Z,87.1
2022-10-12T08:08:16.865Z,87.2
2022-10-12T08:09:17.462Z,87.3
2022-10-12T08:10:18.062Z,86.6
2022-10-12T08:11:18.663Z,86.8
2022-10-12T08:12:19.267Z,85.6
2022-10-12T08:13:19.861Z,85.1
2022-10-12T08:14:20.459Z,86.3
2022-10-12T08:15:21.075Z,86.7
2022-10-12T08:16:21.677Z,87.2
2022-10-12T08:17:22.274Z,87.1
2022-10-12T08:18:22.873Z,87.0
2022-10-12T08:19:23.470Z,86.7
2022-10-12T08:20:24.069Z,86.8
2022-10-12T08:21:24.668Z,86.8
2022-10-12T08:22:25.271Z,86.5
2022-10-12T08:23:25.865Z,84.9
2022-10-12T08:24:26.468Z,86.7
2022-10-12T08:25:27.068Z,85.3
2022-10-12T08:26:27.668Z,85.5
2022-10-12T08:27:28.266Z,85.4
2022-10-12T08:28:28.936Z,84.6
2022-10-12T08:29:29.491Z,85.7
2022-10-12T08:30:30.108Z,86.3
2022-10-12T08:31:30.708Z,84.6
2022-10-12T08:32:31.330Z,83.8
2022-10-12T08:33:31.937Z,84.2
2022-10-12T08:34:32.533Z,83.9
2022-10-12T08:35:33.132Z,83.4
2022-10-12T08:36:33.736Z,83.1
2022-10-12T08:37:34.358Z,84.4
2022-10-12T08:38:34.956Z,84.8
2022-10-12T08:39:35.554Z,86.7
2022-10-12T08:40:36.155Z,84.2
2022-10-12T08:41:36.756Z,83.2
2022-10-12T08:42:37.380Z,84.6
2022-10-12T08:43:37.981Z,84.5
2022-10-12T08:44:38.582Z,84.6
2022-10-12T08:45:39.181Z,85.1
2022-10-12T08:46:39.782Z,83.4
2022-10-12T08:47:40.961Z,83.7
2022-10-12T08:48:41.888Z,85.3
2022-10-12T08:49:45.188Z,83.4
2022-10-12T08:50:44.113Z,82.9
2022-10-12T08:51:44.685Z,83.9
2022-10-12T08:52:45.284Z,82.6
2022-10-12T08:53:45.887Z,83.7
2022-10-12T08:54:46.487Z,83.8
2022-10-12T08:55:47.091Z,83.8
2022-10-12T08:56:47.692Z,82.2
2022-10-12T08:57:50.046Z,82.2
2022-10-12T08:58:49.885Z,82.0
2022-10-12T08:59:50.506Z,82.0
2022-10-12T09:00:51.108Z,82.3
2022-10-12T09:01:51.791Z,82.8
2022-10-12T09:02:52.341Z,83.6
2022-10-12T09:03:52.940Z,84.0
2022-10-12T09:04:53.545Z,83.4
2022-10-12T09:05:54.143Z,85.2
2022-10-12T09:06:54.762Z,84.5
2022-10-12T09:07:55.364Z,83.7
2022-10-12T09:08:55.967Z,83.7
2022-10-12T09:09:56.568Z,84.1
2022-10-12T09:10:57.170Z,84.6
2022-10-12T09:11:57.771Z,84.7
2022-10-12T09:12:58.371Z,84.3
2022-10-12T09:13:58.972Z,84.3
2022-10-12T09:14:59.575Z,82.7
2022-10-12T09:16:00.196Z,83.5
2022-10-12T09:17:00.818Z,84.0
2022-10-12T09:18:01.417Z,84.1
2022-10-12T09:19:02.017Z,83.7
2022-10-12T09:20:02.619Z,84.1
2022-10-12T09:21:03.216Z,82.8
2022-10-12T09:22:03.816Z,84.6
2022-10-12T09:23:04.432Z,85.7
2022-10-12T09:24:05.034Z,84.1
2022-10-12T09:25:05.639Z,85.6
2022-10-12T09:26:06.239Z,86.3
2022-10-12T09:27:06.840Z,84.9
2022-10-12T09:28:07.440Z,84.9
2022-10-12T09:29:08.041Z,85.3
2022-10-12T09:30:08.664Z,85.1
2022-10-12T09:31:09.261Z,86.3
2022-10-12T09:32:09.864Z,81.8
2022-10-12T09:33:10.464Z,83.5
2022-10-12T09:34:14.386Z,84.1
2022-10-12T09:35:11.738Z,82.4
2022-10-12T09:36:12.322Z,80.9
2022-10-12T09:37:12.921Z,80.5
2022-10-12T09:38:13.522Z,81.1
2022-10-12T09:39:14.123Z,81.3
2022-10-12T09:40:14.766Z,81.2
2022-10-12T09:41:15.330Z,81.3
2022-10-12T09:42:15.933Z,81.1
2022-10-12T09:43:16.534Z,80.2
2022-10-12T09:44:17.132Z,77.3
2022-10-12T09:45:18.067Z,79.6
2022-10-12T09:46:18.748Z,78.2
2022-10-12T09:47:19.348Z,77.8
2022-10-12T09:48:19.947Z,77.9
2022-10-12T09:49:20.547Z,78.1
2022-10-12T09:50:21.182Z,77.4
2022-10-12T09:51:21.840Z,77.0
2022-10-12T09:52:22.440Z,77.0
2022-10-12T09:53:23.042Z,78.0
2022-10-12T09:54:23.663Z,76.0
2022-10-12T09:55:24.309Z,75.4
2022-10-12T09:56:24.878Z,75.2
2022-10-12T09:57:25.476Z,75.3
2022-10-12T09:58:26.076Z,75.7
2022-10-12T09:59:26.679Z,74.6
2022-10-12T10:00:27.283Z,74.2
2022-10-12T10:01:27.928Z,75.1
2022-10-12T10:02:28.486Z,75.2
2022-10-12T10:03:30.761Z,75.9
2022-10-12T10:04:29.708Z,75.5
2022-10-12T10:05:30.301Z,75.6
2022-10-12T10:06:30.902Z,75.8
2022-10-12T10:07:31.500Z,75.8
2022-10-12T10:08:32.102Z,77.0
2022-10-12T10:09:32.704Z,76.6
2022-10-12T10:10:33.312Z,75.1
2022-10-12T10:11:33.906Z,74.1
2022-10-12T10:12:34.510Z,72.0
2022-10-12T10:13:35.110Z,72.0
2022-10-12T10:14:35.712Z,70.7
2022-10-12T10:15:36.314Z,72.0
2022-10-12T10:16:36.916Z,71.4
2022-10-12T10:17:37.517Z,70.9
2022-10-12T10:18:38.120Z,69.4
2022-10-12T10:19:38.721Z,69.6
2022-10-12T10:20:39.324Z,70.0
2022-10-12T10:21:40.027Z,69.8
2022-10-12T10:22:40.628Z,70.6
2022-10-12T10:23:41.230Z,70.5
2022-10-12T10:24:41.832Z,69.4
2022-10-12T10:25:42.453Z,70.1
2022-10-12T10:26:43.057Z,68.7
2022-10-12T10:27:43.655Z,69.3
2022-10-12T10:28:44.310Z,69.0
2022-10-12T10:29:44.882Z,68.5
2022-10-12T10:30:45.749Z,68.1
2022-10-12T10:31:46.116Z,69.4
2022-10-12T10:32:46.700Z,69.0
2022-10-12T10:33:47.301Z,68.8
2022-10-12T10:34:47.902Z,68.6
2022-10-12T10:35:50.122Z,67.3
2022-10-12T10:36:50.095Z,67.9
2022-10-12T10:37:50.694Z,67.4
2022-10-12T10:38:51.305Z,67.8
2022-10-12T10:39:51.918Z,67.6
2022-10-12T10:40:52.524Z,67.0
2022-10-12T10:41:53.477Z,66.6
2022-10-12T10:42:53.993Z,67.2
2022-10-12T10:43:54.594Z,67.6
2022-10-12T10:44:55.201Z,67.8
2022-10-12T10:45:55.801Z,67.5
2022-10-12T10:46:56.396Z,67.2
2022-10-12T10:47:56.996Z,66.9
2022-10-12T10:48:57.597Z,67.4
2022-10-12T10:49:58.198Z,66.9
2022-10-12T10:50:58.802Z,66.8
2022-10-12T10:51:59.403Z,68.1
2022-10-12T10:53:00.032Z,67.4
2022-10-12T10:54:00.624Z,66.6
2022-10-12T10:55:01.227Z,67.6
2022-10-12T10:56:01.826Z,67.3
2022-10-12T10:57:02.429Z,67.1
2022-10-12T10:58:03.030Z,66.9
2022-10-12T10:59:09.047Z,66.8
2022-10-12T11:00:26.498Z,67.3
2022-10-12T11:01:06.825Z,66.8
2022-10-12T11:02:07.446Z,67.0
2022-10-12T11:03:08.128Z,68.1
2022-10-12T11:04:08.688Z,67.1
2022-10-12T11:05:09.306Z,67.1
2022-10-12T11:06:09.906Z,66.3
2022-10-12T11:07:10.509Z,67.4
2022-10-12T11:08:11.110Z,66.6
2022-10-12T11:09:11.714Z,66.6
2022-10-12T11:10:12.316Z,65.7
2022-10-12T11:11:12.936Z,65.5
2022-10-12T11:12:13.535Z,67.5
2022-10-12T11:13:14.137Z,66.9
2022-10-12T11:14:14.746Z,66.8
2022-10-12T11:15:15.341Z,65.7
2022-10-12T11:16:15.943Z,66.9
2022-10-12T11:17:16.567Z,65.3
2022-10-12T11:18:17.167Z,65.7
2022-10-12T11:19:17.768Z,65.7
2022-10-12T11:20:19.876Z,66.1
2022-10-12T11:21:19.967Z,65.1
2022-10-12T11:22:20.566Z,65.8
2022-10-12T11:23:21.185Z,65.3
2022-10-12T11:24:21.785Z,66.8
2022-10-12T11:25:22.391Z,65.1
2022-10-12T11:26:22.990Z,64.9
2022-10-12T11:27:23.590Z,65.0
2022-10-12T11:28:24.354Z,63.1
2022-10-12T11:29:24.944Z,64.3
2022-10-12T11:30:25.547Z,64.0
2022-10-12T11:31:26.152Z,64.3
2022-10-12T11:32:26.749Z,63.4
2022-10-12T11:33:27.351Z,62.8
2022-10-12T11:34:27.950Z,64.2
2022-10-12T11:35:28.551Z,63.7
2022-10-12T11:36:29.150Z,62.3
2022-10-12T11:37:29.754Z,62.6
2022-10-12T11:38:30.354Z,63.8
2022-10-12T11:39:30.957Z,63.8
2022-10-12T11:40:55.575Z,63.7
2022-10-12T11:41:35.858Z,64.3
2022-10-12T11:42:34.640Z,64.4
2022-10-12T11:43:35.243Z,64.0
2022-10-12T11:44:35.862Z,64.3
2022-10-12T11:45:36.464Z,64.1
2022-10-12T11:46:37.063Z,64.3
2022-10-12T11:47:37.663Z,64.8
2022-10-12T11:48:38.264Z,64.0
2022-10-12T11:49:38.864Z,64.3
2022-10-12T11:50:39.466Z,63.7
2022-10-12T11:51:40.067Z,64.0
2022-10-12T11:52:40.669Z,64.0
2022-10-12T11:53:41.276Z,64.1
2022-10-12T11:54:41.891Z,63.9
2022-10-12T11:55:42.492Z,63.6
2022-10-12T11:56:43.097Z,63.8
2022-10-12T11:57:43.739Z,63.9
2022-10-12T11:59:01.447Z,63.4
2022-10-12T11:59:45.910Z,63.1
2022-10-12T12:00:46.510Z,62.8
2022-10-12T12:01:47.115Z,63.4
2022-10-12T12:02:47.732Z,63.0
2022-10-12T12:03:48.361Z,64.3
2022-10-12T12:04:49.049Z,63.7
2022-10-12T12:05:49.551Z,64.1
2022-10-12T12:06:50.150Z,63.6
2022-10-12T12:07:50.751Z,64.2
2022-10-12T12:08:51.372Z,65.5
2022-10-12T12:09:52.213Z,64.6
2022-10-12T12:10:52.969Z,66.2
2022-10-12T12:11:53.570Z,66.3
2022-10-12T12:12:54.170Z,64.9
2022-10-12T12:13:54.771Z,66.1
2022-10-12T12:14:55.377Z,66.1
2022-10-12T12:15:55.974Z,66.8
2022-10-12T12:16:56.573Z,66.2
2022-10-12T12:17:57.177Z,66.7
2022-10-12T12:18:57.778Z,65.8
2022-10-12T12:19:58.377Z,65.5
2022-10-12T12:20:58.979Z,66.8
2022-10-12T12:21:59.578Z,67.3
2022-10-12T12:23:00.180Z,66.7
2022-10-12T12:24:00.783Z,67.5
2022-10-12T12:25:01.383Z,67.2
2022-10-12T12:26:01.986Z,67.3
2022-10-12T12:27:02.607Z,68.4
2022-10-12T12:28:03.299Z,66.6
2022-10-12T12:29:03.827Z,68.2
2022-10-12T12:30:04.492Z,67.2
2022-10-12T12:31:05.079Z,65.4
2022-10-12T12:32:05.680Z,66.2
2022-10-12T12:33:06.281Z,67.2
2022-10-12T12:34:06.884Z,66.1
2022-10-12T12:35:07.504Z,65.4
2022-10-12T12:36:08.106Z,66.7
2022-10-12T12:37:08.706Z,65.6
2022-10-12T12:38:09.310Z,65.4
2022-10-12T12:39:09.914Z,64.9
2022-10-12T12:40:10.531Z,64.8
2022-10-12T12:41:11.152Z,64.5
2022-10-12T12:42:11.762Z,64.9
2022-10-12T12:43:12.357Z,65.0
2022-10-12T12:44:12.958Z,65.0
2022-10-12T12:45:13.578Z,64.4
2022-10-12T12:46:14.181Z,66.1
2022-10-12T12:48:18.422Z,64.2
2022-10-12T12:49:17.967Z,63.9
2022-10-12T12:50:18.571Z,64.2
2022-10-12T12:51:19.173Z,63.6
2022-10-12T12:52:19.774Z,64.2
2022-10-12T12:53:20.372Z,64.6
2022-10-12T12:54:20.977Z,65.5
2022-10-12T12:55:21.578Z,65.5
2022-10-12T12:56:22.179Z,65.1
2022-10-12T12:57:22.803Z,64.7
2022-10-12T12:58:23.454Z,64.7
2022-10-12T12:59:24.047Z,64.0
2022-10-12T13:00:24.766Z,62.9
2022-10-12T13:01:25.427Z,63.3
2022-10-12T13:02:26.013Z,63.3
2022-10-12T13:03:26.630Z,63.6
2022-10-12T13:04:27.232Z,62.7
2022-10-12T13:05:27.834Z,62.3
2022-10-12T13:06:28.437Z,62.0
2022-10-12T13:07:29.233Z,60.8
2022-10-12T13:08:29.917Z,63.2
2022-10-12T13:09:30.516Z,62.7
2022-10-12T13:10:31.118Z,63.8
2022-10-12T13:11:32.006Z,62.7
2022-10-12T13:12:32.607Z,64.2
2022-10-12T13:13:38.023Z,64.8
2022-10-12T13:14:34.806Z,64.0